Time;durP1;ratioP1;P1;durP2;ratioP2;P2;SDS_P1;SDS_P2;PMS_P1;PMS_P2;Temp;Humidity;BMP_temperature;BMP_pressure;BME280_temperature;BME280_humidity;BME280_pressure;Samples;Min_cycle;Max_cycle;Signal;HPM_P1;HPM_P2
2021/12/28 00:00:25;;;;;;;3.10;1.70;;;18.40;42.20;;;;;;5004058;28;20239;-83
2021/12/28 00:03:03;;;;;;;2.47;1.70;;;18.40;42.20;;;;;;4984679;28;20192;-83
2021/12/28 00:05:29;;;;;;;1.80;1.63;;;18.40;42.40;;;;;;5008152;28;20243;-83
2021/12/28 00:07:54;;;;;;;2.75;1.67;;;18.40;42.40;;;;;;5026995;28;20186;-83
2021/12/28 00:10:31;;;;;;;3.92;1.58;;;18.30;42.40;;;;;;5011491;28;20704;-83
2021/12/28 00:13:02;;;;;;;2.55;1.77;;;18.40;42.50;;;;;;5028513;28;20178;-84
2021/12/28 00:15:34;;;;;;;4.55;1.83;;;18.40;42.40;;;;;;5010363;28;20159;-83
2021/12/28 00:18:08;;;;;;;3.03;1.30;;;18.30;42.50;;;;;;5027720;28;20179;-84
2021/12/28 00:20:35;;;;;;;2.28;1.65;;;18.30;42.50;;;;;;5042892;28;20174;-83
2021/12/28 00:23:22;;;;;;;1.73;1.60;;;18.30;42.50;;;;;;5043954;28;20277;-83
2021/12/28 00:25:56;;;;;;;1.73;1.55;;;18.30;42.70;;;;;;4972131;28;20190;-83
2021/12/28 00:28:38;;;;;;;2.83;1.70;;;18.20;42.50;;;;;;4986739;28;20655;-83
2021/12/28 00:31:11;;;;;;;2.55;1.98;;;18.30;42.50;;;;;;5007786;28;20265;-83
2021/12/28 00:33:36;;;;;;;3.53;1.70;;;18.30;42.70;;;;;;5038374;28;20182;-84
2021/12/28 00:36:08;;;;;;;1.70;1.60;;;18.20;42.60;;;;;;5029737;28;20212;-83
2021/12/28 00:38:35;;;;;;;2.40;1.77;;;18.20;42.50;;;;;;5006516;28;20665;-84
2021/12/28 00:41:07;;;;;;;6.95;1.65;;;18.30;42.60;;;;;;5022974;28;20179;-83
2021/12/28 00:43:37;;;;;;;2.58;1.88;;;18.30;42.70;;;;;;4986550;28;20183;-83
2021/12/28 00:46:09;;;;;;;5.10;1.60;;;18.30;42.60;;;;;;4986852;28;20223;-83
2021/12/28 00:48:48;;;;;;;2.35;1.45;;;18.20;43.30;;;;;;4971239;28;20345;-84
2021/12/28 00:51:20;;;;;;;2.10;1.35;;;18.20;42.60;;;;;;4985902;28;20300;-83
2021/12/28 00:53:48;;;;;;;4.13;1.42;;;18.20;42.50;;;;;;4971279;28;20199;-84
2021/12/28 00:56:17;;;;;;;1.92;1.58;;;18.20;42.50;;;;;;4976726;28;20301;-83
2021/12/28 00:58:43;;;;;;;2.90;2.05;;;18.20;42.50;;;;;;5025813;28;20174;-83
2021/12/28 01:01:18;;;;;;;2.80;1.65;;;18.20;42.50;;;;;;5028104;28;20166;-84
2021/12/28 01:04:04;;;;;;;3.45;1.67;;;18.30;42.50;;;;;;5001931;28;20203;-83
2021/12/28 01:06:36;;;;;;;2.88;1.75;;;18.20;42.50;;;;;;4986362;28;20679;-83
2021/12/28 01:09:09;;;;;;;1.80;1.50;;;18.20;42.50;;;;;;5032131;28;20229;-83
2021/12/28 01:11:35;;;;;;;2.67;1.75;;;18.20;42.40;;;;;;5041309;28;20177;-83
2021/12/28 01:14:01;;;;;;;2.95;1.70;;;18.20;42.50;;;;;;5053436;28;20196;-83
2021/12/28 01:16:31;;;;;;;4.30;1.70;;;18.20;42.60;;;;;;5048224;28;20200;-84
2021/12/28 01:19:05;;;;;;;2.38;1.60;;;18.20;42.50;;;;;;5025196;28;20183;-84
2021/12/28 01:21:33;;;;;;;2.45;1.70;;;18.20;42.50;;;;;;5002805;28;20180;-84
2021/12/28 01:24:07;;;;;;;2.47;1.55;;;18.20;42.50;;;;;;5002626;28;20273;-84
2021/12/28 01:26:43;;;;;;;2.15;1.60;;;18.20;42.60;;;;;;5003221;28;20199;-83
2021/12/28 01:29:24;;;;;;;2.90;1.60;;;18.20;42.50;;;;;;4980853;28;20247;-84
2021/12/28 01:31:55;;;;;;;2.47;1.67;;;18.20;42.40;;;;;;4981839;28;20185;-84
2021/12/28 01:34:23;;;;;;;4.95;1.90;;;18.20;42.40;;;;;;5000515;28;20179;-84
2021/12/28 01:36:51;;;;;;;2.90;1.90;;;18.10;42.50;;;;;;5025633;28;20309;-83
2021/12/28 01:39:26;;;;;;;2.72;1.73;;;18.20;42.40;;;;;;5027765;28;20179;-83
2021/12/28 01:41:52;;;;;;;1.88;1.45;;;18.20;42.50;;;;;;5013847;28;20178;-83
2021/12/28 01:44:22;;;;;;;2.25;1.85;;;18.10;42.40;;;;;;5013390;28;20265;-83
2021/12/28 01:46:48;;;;;;;2.85;1.92;;;18.10;42.50;;;;;;5008851;28;20245;-83
2021/12/28 01:49:15;;;;;;;2.85;1.75;;;18.10;42.50;;;;;;4993196;28;20183;-84
2021/12/28 01:51:46;;;;;;;2.28;1.40;;;18.00;42.30;;;;;;5022602;28;20183;-83
2021/12/28 01:54:17;;;;;;;2.08;1.75;;;18.10;42.60;;;;;;4973984;28;20251;-84
2021/12/28 01:56:47;;;;;;;2.80;1.60;;;18.10;42.60;;;;;;4974029;28;20184;-83
2021/12/28 01:59:18;;;;;;;2.83;1.80;;;18.10;42.50;;;;;;5013646;28;20171;-83
2021/12/28 02:01:52;;;;;;;2.58;1.63;;;18.00;42.60;;;;;;5021389;28;20691;-83
2021/12/28 02:05:12;;;;;;;4.68;1.90;;;18.00;42.50;;;;;;5005227;28;20180;-83
2021/12/28 02:07:30;;;;;;;3.00;1.80;;;18.10;42.70;;;;;;4975685;28;20181;-83
2021/12/28 02:09:56;;;;;;;3.58;1.63;;;18.00;42.50;;;;;;4982844;28;20197;-84
2021/12/28 02:12:33;;;;;;;2.45;1.77;;;18.10;42.60;;;;;;4966941;29;20185;-83
2021/12/28 02:15:08;;;;;;;2.30;1.75;;;18.10;42.50;;;;;;4987459;28;20192;-83
2021/12/28 02:17:44;;;;;;;1.60;1.50;;;18.00;42.60;;;;;;5026192;28;20189;-83
2021/12/28 02:20:16;;;;;;;1.70;1.60;;;18.00;42.50;;;;;;5061811;28;20174;-83
2021/12/28 02:22:46;;;;;;;2.67;1.70;;;18.10;42.60;;;;;;5044839;28;20182;-84
2021/12/28 02:25:13;;;;;;;2.80;1.70;;;18.10;42.60;;;;;;5028395;28;20193;-83
2021/12/28 02:27:41;;;;;;;3.90;1.75;;;18.00;42.60;;;;;;5027138;28;20321;-84
2021/12/28 02:30:16;;;;;;;2.00;1.80;;;18.00;42.50;;;;;;5027963;28;20696;-83
2021/12/28 02:32:49;;;;;;;2.00;1.73;;;18.10;42.60;;;;;;5013913;28;20186;-84
2021/12/28 02:35:25;;;;;;;3.22;1.70;;;18.00;42.40;;;;;;5023938;28;20184;-83
2021/12/28 02:37:54;;;;;;;1.85;1.70;;;18.10;42.40;;;;;;4981889;28;20669;-83
2021/12/28 02:40:33;;;;;;;2.10;1.80;;;18.10;42.50;;;;;;4971942;28;20184;-83
2021/12/28 02:43:02;;;;;;;4.13;1.88;;;18.00;42.50;;;;;;4950048;29;20185;-84
2021/12/28 02:45:38;;;;;;;1.95;1.58;;;17.90;42.40;;;;;;4933899;29;20208;-84
2021/12/28 02:48:07;;;;;;;2.05;1.50;;;18.00;42.60;;;;;;4942238;28;20643;-84
2021/12/28 02:50:43;;;;;;;2.10;1.85;;;18.00;42.50;;;;;;5000543;28;20219;-84
2021/12/28 02:53:22;;;;;;;1.92;1.42;;;18.00;42.50;;;;;;5006748;28;20676;-83
2021/12/28 02:55:48;;;;;;;1.98;1.73;;;17.90;42.50;;;;;;5004349;28;20570;-84
2021/12/28 02:58:26;;;;;;;2.08;1.70;;;18.00;42.60;;;;;;4988921;28;20184;-84
2021/12/28 03:01:09;;;;;;;2.03;1.65;;;17.90;42.50;;;;;;5004682;28;20184;-84
2021/12/28 03:03:46;;;;;;;1.85;1.75;;;17.90;42.80;;;;;;4974064;28;20261;-84
2021/12/28 03:06:23;;;;;;;2.92;1.60;;;18.00;42.50;;;;;;4965754;28;20185;-84
2021/12/28 03:08:59;;;;;;;2.78;2.08;;;18.00;42.40;;;;;;4965239;29;20326;-84
2021/12/28 03:11:37;;;;;;;1.90;1.60;;;17.90;42.60;;;;;;4949586;29;20217;-83
2021/12/28 03:14:10;;;;;;;2.00;1.52;;;17.90;42.60;;;;;;4959954;28;20193;-84
2021/12/28 03:16:45;;;;;;;3.45;1.83;;;17.90;42.50;;;;;;4985197;28;20188;-83
2021/12/28 03:19:13;;;;;;;3.28;1.85;;;17.90;42.60;;;;;;4973734;28;20181;-83
2021/12/28 03:21:40;;;;;;;2.50;1.92;;;17.90;42.60;;;;;;4982226;28;20203;-84
2021/12/28 03:24:13;;;;;;;2.25;1.67;;;17.80;42.60;;;;;;4981882;28;20241;-84
2021/12/28 03:26:39;;;;;;;2.72;1.88;;;17.90;42.60;;;;;;4981580;28;20189;-83
2021/12/28 03:29:06;;;;;;;3.55;1.70;;;17.90;42.60;;;;;;4964905;28;20637;-84
2021/12/28 03:31:34;;;;;;;2.60;1.80;;;17.90;42.60;;;;;;4981436;28;20178;-83
2021/12/28 03:34:02;;;;;;;2.35;1.75;;;17.90;42.60;;;;;;4968916;28;20208;-83
2021/12/28 03:36:45;;;;;;;2.85;1.75;;;17.90;42.50;;;;;;5004228;28;20191;-83
2021/12/28 03:39:25;;;;;;;3.05;1.70;;;17.90;42.70;;;;;;5013923;28;20262;-83
2021/12/28 03:41:52;;;;;;;2.40;1.60;;;17.90;42.50;;;;;;5044192;28;20173;-83
2021/12/28 03:44:24;;;;;;;2.90;1.60;;;17.90;42.60;;;;;;5044217;28;20262;-83
2021/12/28 03:46:52;;;;;;;2.58;1.80;;;17.90;42.60;;;;;;5049079;28;20221;-83
2021/12/28 03:49:24;;;;;;;3.25;1.65;;;17.90;42.50;;;;;;5046996;28;20273;-83
2021/12/28 03:51:50;;;;;;;1.95;1.75;;;17.90;42.50;;;;;;5027985;28;20229;-83
2021/12/28 03:54:21;;;;;;;2.03;1.50;;;17.80;42.60;;;;;;5027577;28;20179;-83
2021/12/28 03:56:51;;;;;;;2.60;1.80;;;17.80;42.40;;;;;;5012138;28;20190;-84
2021/12/28 03:59:29;;;;;;;;;;;;;;;;;;;;;
2021/12/28 04:02:02;;;;;;;2.55;1.60;;;17.80;42.50;;;;;;5037653;28;20680;-84
2021/12/28 04:04:30;;;;;;;2.17;1.70;;;17.80;42.60;;;;;;5047241;28;20587;-84
2021/12/28 04:06:59;;;;;;;2.85;1.83;;;17.80;42.60;;;;;;5069274;28;20309;-83
2021/12/28 04:12:13;;;;;;;3.70;1.80;;;17.80;42.70;;;;;;5084206;28;20181;-83
2021/12/28 04:14:39;;;;;;;2.25;1.77;;;17.80;42.70;;;;;;5083854;28;20272;-83
2021/12/28 04:17:14;;;;;;;3.05;1.63;;;17.70;42.80;;;;;;5084306;28;20204;-84
2021/12/28 04:19:43;;;;;;;3.20;1.80;;;17.80;42.40;;;;;;5083221;28;20181;-84
2021/12/28 04:22:09;;;;;;;2.38;1.85;;;17.90;42.50;;;;;;5089064;28;20678;-83
2021/12/28 04:24:35;;;;;;;3.10;1.70;;;17.90;42.20;;;;;;5070358;28;20188;-85
2021/12/28 04:27:05;;;;;;;2.47;1.80;;;17.90;42.10;;;;;;5087076;28;20221;-83
2021/12/28 04:29:31;;;;;;;2.10;1.90;;;17.90;42.00;;;;;;5087186;28;20612;-84
2021/12/28 04:31:56;;;;;;;2.40;1.83;;;18.00;42.10;;;;;;5087576;28;20156;-83
2021/12/28 04:34:26;;;;;;;2.00;1.80;;;17.90;42.00;;;;;;5090809;27;20157;-83
2021/12/28 04:36:52;;;;;;;2.30;1.65;;;18.00;41.90;;;;;;5123089;28;20187;-83
2021/12/28 04:39:18;;;;;;;2.80;1.75;;;18.00;41.90;;;;;;5089777;28;20180;-83
2021/12/28 04:41:54;;;;;;;2.03;1.60;;;18.00;41.80;;;;;;5089161;28;20187;-83
2021/12/28 04:44:24;;;;;;;2.80;1.95;;;18.00;41.70;;;;;;5107624;28;20647;-83
2021/12/28 04:46:56;;;;;;;2.50;1.90;;;18.10;41.50;;;;;;5086336;28;20285;-83
2021/12/28 04:49:26;;;;;;;2.88;1.88;;;18.10;41.50;;;;;;5086120;28;20172;-83
2021/12/28 04:51:52;;;;;;;2.05;1.58;;;18.20;41.40;;;;;;5069398;28;20176;-83
2021/12/28 04:54:24;;;;;;;2.00;1.58;;;18.20;41.40;;;;;;5069295;28;20191;-83
2021/12/28 04:56:52;;;;;;;1.50;1.40;;;18.20;41.00;;;;;;5070037;28;20206;-83
2021/12/28 04:59:23;;;;;;;2.42;1.85;;;18.30;40.90;;;;;;5087011;28;20157;-83
2021/12/28 05:01:57;;;;;;;1.90;1.33;;;18.30;40.90;;;;;;5086808;28;20268;-83
2021/12/28 05:04:23;;;;;;;2.35;1.90;;;18.30;40.80;;;;;;5045897;28;20178;-83
2021/12/28 05:06:52;;;;;;;2.08;1.73;;;18.30;40.80;;;;;;5028591;28;20182;-83
2021/12/28 05:09:18;;;;;;;1.67;1.48;;;18.30;40.70;;;;;;5026621;28;20171;-83
2021/12/28 05:11:45;;;;;;;1.73;1.33;;;18.40;40.70;;;;;;5026387;28;20178;-83
2021/12/28 05:14:20;;;;;;;2.42;1.77;;;18.30;40.50;;;;;;5012937;28;20178;-83
2021/12/28 05:16:57;;;;;;;1.90;1.70;;;18.50;40.50;;;;;;5035349;28;20234;-84
2021/12/28 05:19:24;;;;;;;2.08;1.55;;;18.40;40.40;;;;;;5051326;28;20197;-83
2021/12/28 05:21:54;;;;;;;1.70;1.60;;;18.40;40.30;;;;;;5053446;28;20165;-83
2021/12/28 05:24:23;;;;;;;1.58;1.48;;;18.40;40.50;;;;;;5053565;28;20268;-83
2021/12/28 05:26:50;;;;;;;1.95;1.60;;;18.40;40.30;;;;;;5030406;28;20175;-84
2021/12/28 05:29:19;;;;;;;2.10;1.70;;;18.40;40.40;;;;;;5029375;28;20246;-84
2021/12/28 05:32:00;;;;;;;1.63;1.52;;;18.40;40.20;;;;;;5029624;28;20186;-83
2021/12/28 05:34:32;;;;;;;2.75;1.90;;;18.50;40.20;;;;;;5053502;28;20238;-84
2021/12/28 05:37:00;;;;;;;2.42;1.73;;;18.40;40.30;;;;;;5064561;28;20189;-84
2021/12/28 05:39:46;;;;;;;1.85;1.60;;;18.50;40.10;;;;;;5030355;28;20551;-84
2021/12/28 05:42:27;;;;;;;2.00;1.50;;;18.40;40.00;;;;;;5029869;28;20190;-84
2021/12/28 05:45:05;;;;;;;;;;;;;;;;;;;;;
2021/12/28 05:48:02;;;;;;;1.73;1.60;;;18.50;40.00;;;;;;5034092;28;20238;-84
2021/12/28 05:50:39;;;;;;;1.85;1.50;;;18.50;40.10;;;;;;5047143;28;20217;-84
2021/12/28 05:53:06;;;;;;;1.50;1.40;;;18.40;40.00;;;;;;5002454;28;20184;-84
2021/12/28 05:55:34;;;;;;;1.83;1.50;;;18.50;39.80;;;;;;4986761;28;20208;-84
2021/12/28 05:58:08;;;;;;;2.38;1.75;;;18.60;39.80;;;;;;4987261;28;20589;-84
2021/12/28 06:00:41;;;;;;;1.98;1.65;;;18.60;39.80;;;;;;4986598;28;20189;-84
2021/12/28 06:03:16;;;;;;;1.77;1.48;;;18.60;39.70;;;;;;4990056;28;20199;-84
2021/12/28 06:05:53;;;;;;;2.03;1.67;;;18.60;39.90;;;;;;5009780;28;20190;-84
2021/12/28 06:08:34;;;;;;;1.83;1.70;;;18.50;40.00;;;;;;4985618;28;20248;-84
2021/12/28 06:11:18;;;;;;;2.15;1.40;;;18.60;40.00;;;;;;4951563;29;20685;-85
2021/12/28 06:13:44;;;;;;;3.78;1.65;;;18.60;40.10;;;;;;4947926;29;20189;-84
2021/12/28 06:16:12;;;;;;;1.40;1.30;;;18.60;39.90;;;;;;4949150;29;20183;-84
2021/12/28 06:18:39;;;;;;;2.10;1.58;;;18.60;40.10;;;;;;4949443;29;20675;-84
2021/12/28 06:21:12;;;;;;;2.63;1.60;;;18.60;39.90;;;;;;4973966;28;20185;-85
2021/12/28 06:23:38;;;;;;;2.13;1.38;;;18.50;39.80;;;;;;4992246;28;20198;-85
2021/12/28 06:26:07;;;;;;;2.75;1.60;;;18.60;39.40;;;;;;5043064;28;20183;-85
2021/12/28 06:28:41;;;;;;;2.15;1.40;;;18.60;39.90;;;;;;5046008;28;20178;-84
2021/12/28 06:31:07;;;;;;;1.65;1.30;;;18.60;39.60;;;;;;5045963;28;20775;-84
2021/12/28 06:33:40;;;;;;;1.65;1.55;;;18.60;39.70;;;;;;5062741;28;20175;-85
2021/12/28 06:36:09;;;;;;;2.00;1.30;;;18.60;39.60;;;;;;5045952;28;20178;-85
2021/12/28 06:38:35;;;;;;;1.63;1.50;;;18.70;39.50;;;;;;5046728;28;20183;-85
2021/12/28 06:41:01;;;;;;;2.83;1.60;;;18.60;39.50;;;;;;5019801;28;20188;-85
2021/12/28 06:43:32;;;;;;;2.55;1.50;;;18.60;39.50;;;;;;5069871;28;20166;-85
2021/12/28 06:46:00;;;;;;;1.75;1.58;;;18.60;39.60;;;;;;5106011;28;20185;-85
2021/12/28 06:48:30;;;;;;;1.77;1.50;;;18.60;39.60;;;;;;5108046;28;20256;-84
2021/12/28 06:50:59;;;;;;;1.83;1.33;;;18.60;39.50;;;;;;5092500;28;20195;-85
2021/12/28 06:53:27;;;;;;;1.40;1.30;;;18.60;39.40;;;;;;5032444;28;20181;-84
2021/12/28 06:56:03;;;;;;;;;;;;;;;;;;;;;
2021/12/28 06:58:35;;;;;;;1.30;1.20;;;18.70;39.60;;;;;;5023237;28;20773;-85
2021/12/28 07:01:02;;;;;;;2.10;1.73;;;18.70;39.70;;;;;;5024960;28;20207;-85
2021/12/28 07:03:32;;;;;;;1.65;1.55;;;18.70;39.40;;;;;;5025213;28;20179;-85
2021/12/28 07:06:09;;;;;;;1.80;1.52;;;18.70;39.50;;;;;;5024340;28;20244;-85
2021/12/28 07:08:39;;;;;;;2.88;1.77;;;18.70;39.20;;;;;;5041269;28;20218;-85
2021/12/28 07:11:05;;;;;;;1.60;1.50;;;18.70;39.50;;;;;;5023952;28;20559;-85
2021/12/28 07:13:46;;;;;;;1.67;1.50;;;18.70;39.50;;;;;;5042605;28;20270;-85
2021/12/28 07:16:24;;;;;;;1.70;1.50;;;18.70;39.40;;;;;;5026068;28;20201;-85
2021/12/28 07:18:58;;;;;;;1.83;1.50;;;18.70;39.40;;;;;;5026214;28;20201;-85
2021/12/28 07:21:29;;;;;;;2.17;1.42;;;18.70;39.40;;;;;;5043247;28;20194;-85
2021/12/28 07:24:21;;;;;;;;;;;;;;;;;;;;;
2021/12/28 07:26:54;;;;;;;1.30;1.20;;;18.70;39.30;;;;;;5043638;28;20204;-83
2021/12/28 07:29:20;;;;;;;1.77;1.40;;;18.70;39.20;;;;;;5109584;28;20683;-84
2021/12/28 07:31:46;;;;;;;1.70;1.40;;;18.70;39.30;;;;;;5126109;28;20180;-84
2021/12/28 07:34:11;;;;;;;1.38;1.27;;;18.70;39.40;;;;;;5125971;28;20628;-84
2021/12/28 07:37:09;;;;;;;1.60;1.33;;;18.70;39.40;;;;;;5108378;28;20180;-84
2021/12/28 07:39:39;;;;;;;1.67;1.30;;;18.70;39.20;;;;;;5104818;28;20188;-85
2021/12/28 07:42:26;;;;;;;1.33;1.23;;;18.70;39.30;;;;;;5108827;28;20214;-84
2021/12/28 07:44:58;;;;;;;1.90;1.50;;;18.70;39.30;;;;;;5091878;28;20222;-85
2021/12/28 07:47:27;;;;;;;1.75;1.38;;;18.70;39.40;;;;;;5132916;27;20219;-85
2021/12/28 07:49:53;;;;;;;1.55;1.40;;;18.80;39.10;;;;;;5127087;27;20195;-84
2021/12/28 07:52:23;;;;;;;1.83;1.40;;;18.80;39.10;;;;;;5092906;27;20170;-85
2021/12/28 07:54:51;;;;;;;3.13;1.65;;;18.70;39.40;;;;;;5092302;27;20155;-86
2021/12/28 07:57:34;;;;;;;1.52;1.30;;;18.70;39.30;;;;;;5107879;27;20155;-85
2021/12/28 08:00:07;;;;;;;2.47;1.58;;;18.80;39.10;;;;;;5032649;28;20276;-84
2021/12/28 08:02:36;;;;;;;1.50;1.40;;;18.70;39.20;;;;;;5047065;28;20181;-85
2021/12/28 08:05:08;;;;;;;2.47;1.63;;;18.80;39.40;;;;;;4978156;28;20209;-85
2021/12/28 08:07:42;;;;;;;2.33;1.30;;;18.80;39.70;;;;;;4946982;28;20220;-86
2021/12/28 08:10:15;;;;;;;1.77;1.38;;;18.80;39.60;;;;;;4923320;29;20205;-85
2021/12/28 08:12:44;;;;;;;1.35;1.20;;;18.80;39.70;;;;;;4888029;29;20188;-85
2021/12/28 08:15:18;;;;;;;2.88;1.58;;;18.80;39.60;;;;;;4902554;29;20270;-85
2021/12/28 08:17:44;;;;;;;3.42;1.58;;;18.80;39.80;;;;;;4871769;29;20209;-85
2021/12/28 08:20:13;;;;;;;2.80;1.30;;;18.80;39.90;;;;;;4903080;29;20272;-85
2021/12/28 08:23:00;;;;;;;3.42;1.40;;;18.80;39.80;;;;;;4904005;29;20187;-85
2021/12/28 08:25:31;;;;;;;3.25;1.35;;;18.80;39.90;;;;;;4865843;29;20189;-86
2021/12/28 08:28:06;;;;;;;1.73;1.52;;;18.90;39.90;;;;;;4828154;29;20207;-86
2021/12/28 08:30:40;;;;;;;1.80;1.55;;;18.90;39.80;;;;;;4845266;29;20215;-86
2021/12/28 08:33:07;;;;;;;1.52;1.42;;;18.90;39.70;;;;;;4850062;29;20189;-85
2021/12/28 08:35:47;;;;;;;1.45;1.30;;;18.80;39.60;;;;;;4876814;29;20189;-84
2021/12/28 08:38:18;;;;;;;1.45;1.35;;;18.90;39.60;;;;;;4939625;29;20269;-83
2021/12/28 08:40:51;;;;;;;2.40;1.50;;;18.90;39.40;;;;;;4946496;29;20193;-84
2021/12/28 08:43:34;;;;;;;1.83;1.33;;;18.90;39.50;;;;;;4943436;29;20684;-85
2021/12/28 08:46:03;;;;;;;3.33;1.50;;;18.90;39.30;;;;;;4944553;29;20221;-85
2021/12/28 08:48:36;;;;;;;3.60;1.55;;;18.90;39.50;;;;;;4921850;29;20248;-85
2021/12/28 08:51:04;;;;;;;4.97;1.67;;;18.90;39.60;;;;;;4993609;28;20235;-84
2021/12/28 08:53:37;;;;;;;13.45;2.35;;;18.90;39.60;;;;;;4965806;28;20191;-86
2021/12/28 08:56:03;;;;;;;9.82;2.05;;;18.90;39.70;;;;;;4963334;28;20180;-84
2021/12/28 08:58:32;;;;;;;9.85;2.15;;;18.90;39.60;;;;;;4992139;28;20185;-83
2021/12/28 09:01:01;;;;;;;15.50;2.35;;;18.90;39.80;;;;;;4992746;28;20190;-84
2021/12/28 09:03:29;;;;;;;11.07;1.90;;;18.90;39.80;;;;;;5056266;28;20182;-85
2021/12/28 09:05:55;;;;;;;9.85;2.25;;;18.90;39.90;;;;;;5036868;28;20288;-84
2021/12/28 09:08:21;;;;;;;18.58;2.47;;;19.00;40.00;;;;;;5038261;28;20660;-83
2021/12/28 09:10:48;;;;;;;24.83;2.97;;;19.00;40.00;;;;;;5054193;28;20190;-84
2021/12/28 09:13:14;;;;;;;25.33;2.78;;;19.00;40.10;;;;;;5051680;28;20300;-84
2021/12/28 09:15:40;;;;;;;15.68;2.70;;;19.00;40.20;;;;;;5065062;28;20216;-84
2021/12/28 09:18:09;;;;;;;12.25;2.10;;;19.00;40.30;;;;;;5056967;28;20150;-85
2021/12/28 09:20:37;;;;;;;16.17;2.33;;;19.00;40.20;;;;;;5080537;28;20193;-84
2021/12/28 09:23:08;;;;;;;22.05;2.53;;;19.00;40.30;;;;;;5080618;28;20160;-84
2021/12/28 09:25:37;;;;;;;27.77;2.70;;;19.10;40.50;;;;;;5080068;28;20200;-84
2021/12/28 09:28:07;;;;;;;25.35;2.90;;;19.10;40.60;;;;;;5082834;28;20488;-84
2021/12/28 09:30:46;;;;;;;31.00;2.85;;;19.10;40.80;;;;;;5113455;28;20216;-85
2021/12/28 09:33:12;;;;;;;27.67;3.38;;;19.20;41.00;;;;;;5081144;28;20377;-84
2021/12/28 09:35:41;;;;;;;31.35;3.00;;;19.30;41.00;;;;;;5079766;28;20273;-84
2021/12/28 09:38:07;;;;;;;25.17;2.80;;;19.30;41.20;;;;;;5100824;28;20164;-85
2021/12/28 09:40:46;;;;;;;22.63;2.75;;;19.20;41.40;;;;;;5086415;28;20183;-85
2021/12/28 09:43:32;;;;;;;26.27;3.00;;;19.20;41.50;;;;;;5086033;28;20266;-85
2021/12/28 09:45:59;;;;;;;17.60;2.35;;;19.20;41.10;;;;;;5103118;28;20148;-86
2021/12/28 09:48:25;;;;;;;29.15;2.72;;;19.20;40.90;;;;;;5117860;28;20268;-83
2021/12/28 09:50:53;;;;;;;24.08;2.90;;;19.20;40.80;;;;;;5101058;28;20199;-83
2021/12/28 09:53:19;;;;;;;22.30;3.08;;;19.20;40.90;;;;;;5085046;28;20195;-83
2021/12/28 09:55:53;;;;;;;24.30;2.78;;;19.20;40.80;;;;;;5119632;28;20771;-85
2021/12/28 09:58:19;;;;;;;23.77;2.42;;;19.20;40.90;;;;;;5103477;28;20226;-84
2021/12/28 10:00:48;;;;;;;17.67;2.40;;;19.20;41.00;;;;;;5107539;27;20245;-84
2021/12/28 10:03:20;;;;;;;11.90;2.47;;;19.20;41.10;;;;;;5105942;27;20159;-84
2021/12/28 10:05:47;;;;;;;17.88;2.45;;;19.20;41.30;;;;;;5046034;28;20217;-85
2021/12/28 10:08:23;;;;;;;20.17;2.40;;;19.20;41.60;;;;;;5058210;28;20286;-85
2021/12/28 10:10:52;;;;;;;15.82;3.13;;;19.20;41.40;;;;;;5086679;28;20200;-82
2021/12/28 10:13:28;;;;;;;14.57;2.20;;;19.20;41.40;;;;;;5090315;28;20196;-83
2021/12/28 10:16:00;;;;;;;12.43;2.28;;;19.20;41.30;;;;;;5025375;28;20194;-83
2021/12/28 10:18:49;;;;;;;11.52;2.40;;;19.30;41.40;;;;;;4990285;28;20203;-83
2021/12/28 10:21:24;;;;;;;9.65;2.20;;;19.20;41.50;;;;;;4979505;28;20187;-83
2021/12/28 10:24:00;;;;;;;13.65;2.40;;;19.20;41.50;;;;;;5005694;28;20341;-83
2021/12/28 10:26:29;;;;;;;14.82;2.15;;;19.20;41.60;;;;;;5005541;28;20248;-84
2021/12/28 10:29:28;;;;;;;13.07;2.55;;;19.20;41.60;;;;;;5005955;28;20184;-83
2021/12/28 10:32:23;;;;;;;12.30;2.30;;;19.30;41.90;;;;;;5006413;28;20188;-83
2021/12/28 10:35:00;;;;;;;11.10;2.20;;;19.20;41.90;;;;;;4948360;29;20203;-83
2021/12/28 10:37:34;;;;;;;23.40;2.83;;;19.30;41.70;;;;;;4996346;28;20187;-83
2021/12/28 10:40:05;;;;;;;22.65;2.97;;;19.30;41.60;;;;;;4971618;28;20191;-83
2021/12/28 10:42:44;;;;;;;25.23;2.95;;;19.30;41.50;;;;;;4951734;29;20200;-83
2021/12/28 10:45:22;;;;;;;47.75;4.18;;;19.30;41.60;;;;;;4951784;29;20181;-83
2021/12/28 10:47:53;;;;;;;46.75;4.00;;;19.30;41.50;;;;;;4989692;28;20222;-83
2021/12/28 10:50:35;;;;;;;53.97;4.47;;;19.30;41.70;;;;;;4971172;28;20212;-83
2021/12/28 10:53:22;;;;;;;58.60;4.82;;;19.40;41.70;;;;;;4954442;28;20271;-83
2021/12/28 10:55:57;;;;;;;50.75;4.07;;;19.40;41.80;;;;;;4969612;28;20185;-84
2021/12/28 10:58:31;;;;;;;40.95;4.63;;;19.40;41.60;;;;;;4948675;29;20247;-85
2021/12/28 11:01:13;;;;;;;52.58;5.55;;;19.30;41.80;;;;;;4965707;29;20284;-84
2021/12/28 11:03:47;;;;;;;55.20;5.03;;;19.30;41.80;;;;;;4925818;29;20191;-82
2021/12/28 11:06:35;;;;;;;57.60;4.60;;;19.30;41.90;;;;;;4955594;29;20201;-83
2021/12/28 11:09:13;;;;;;;61.08;4.40;;;19.40;41.90;;;;;;4944451;29;20197;-85
2021/12/28 11:11:52;;;;;;;42.35;4.53;;;19.40;42.00;;;;;;4939211;29;20353;-87
2021/12/28 11:14:25;;;;;;;40.33;3.92;;;19.40;42.60;;;;;;4968851;28;20205;-87
2021/12/28 11:17:07;;;;;;;44.90;4.93;;;19.40;42.20;;;;;;4936690;29;20206;-86
2021/12/28 11:19:39;;;;;;;47.97;4.88;;;19.40;42.10;;;;;;4927648;29;20177;-84
2021/12/28 11:22:14;;;;;;;43.40;4.85;;;19.40;41.90;;;;;;4941307;29;20186;-87
2021/12/28 11:24:47;;;;;;;50.05;5.68;;;19.40;42.00;;;;;;4962576;29;20196;-87
2021/12/28 11:27:30;;;;;;;64.20;6.00;;;19.40;41.90;;;;;;4948705;29;20715;-85
2021/12/28 11:30:01;;;;;;;63.47;5.70;;;19.40;41.90;;;;;;4936350;29;20268;-83
2021/12/28 11:32:39;;;;;;;83.82;6.40;;;19.40;41.90;;;;;;4965428;29;20524;-83
2021/12/28 11:35:07;;;;;;;74.43;5.72;;;19.40;42.00;;;;;;4954986;28;20185;-82
2021/12/28 11:37:44;;;;;;;61.70;5.53;;;19.40;42.00;;;;;;4971027;28;20687;-82
2021/12/28 11:40:13;;;;;;;54.08;4.93;;;19.40;42.10;;;;;;4977896;28;20184;-83
2021/12/28 11:42:59;;;;;;;40.20;4.22;;;19.40;42.00;;;;;;4989957;28;20265;-84
2021/12/28 11:45:41;;;;;;;33.80;4.10;;;19.40;41.90;;;;;;5059822;28;20186;-83
2021/12/28 11:48:09;;;;;;;34.28;4.25;;;19.50;42.00;;;;;;4980558;28;20358;-84
2021/12/28 11:50:36;;;;;;;42.53;4.20;;;19.40;41.90;;;;;;5013904;28;20224;-84
2021/12/28 11:53:28;;;;;;;47.90;4.22;;;19.40;42.10;;;;;;5032522;28;20191;-85
2021/12/28 11:56:11;;;;;;;43.55;4.65;;;19.40;42.00;;;;;;5042680;28;20170;-84
2021/12/28 11:59:04;;;;;;;41.90;4.07;;;19.40;42.10;;;;;;5072125;28;20178;-84
2021/12/28 12:01:51;;;;;;;35.42;4.15;;;19.40;42.20;;;;;;5021771;28;20595;-84
2021/12/28 12:04:55;;;;;;;44.15;4.10;;;19.40;42.30;;;;;;5035507;28;20669;-84
2021/12/28 12:07:31;;;;;;;37.22;3.90;;;19.40;42.50;;;;;;5031705;28;20201;-84
2021/12/28 12:10:11;;;;;;;48.90;4.60;;;19.50;42.50;;;;;;4961725;29;20773;-83
2021/12/28 12:12:56;;;;;;;50.03;5.60;;;19.50;42.90;;;;;;4904619;29;20587;-84
2021/12/28 12:15:35;;;;;;;35.78;4.50;;;19.40;42.60;;;;;;4888427;29;20183;-84
2021/12/28 12:18:02;;;;;;;42.45;4.43;;;19.40;42.50;;;;;;4867625;29;20271;-83
2021/12/28 12:20:33;;;;;;;42.85;4.40;;;19.40;42.60;;;;;;4869871;29;20188;-84
2021/12/28 12:23:18;;;;;;;36.42;4.82;;;19.40;42.50;;;;;;4870148;29;20536;-85
2021/12/28 12:25:59;;;;;;;28.15;4.13;;;19.40;42.50;;;;;;4845009;29;20196;-84
2021/12/28 12:28:48;;;;;;;34.05;4.13;;;19.40;42.40;;;;;;4848147;29;20186;-84
2021/12/28 12:31:33;;;;;;;33.55;4.07;;;19.40;42.50;;;;;;4865046;29;20215;-84
2021/12/28 12:34:00;;;;;;;33.55;4.05;;;19.40;42.80;;;;;;4864842;29;20259;-84
2021/12/28 12:36:45;;;;;;;39.67;4.22;;;19.40;42.50;;;;;;4865842;29;20189;-83
2021/12/28 12:39:14;;;;;;;28.75;3.78;;;19.40;42.50;;;;;;4913083;29;20538;-84
2021/12/28 12:41:47;;;;;;;34.75;4.13;;;19.40;42.40;;;;;;4938001;29;20189;-83
2021/12/28 12:44:18;;;;;;;33.75;4.22;;;19.40;42.40;;;;;;4919135;29;20539;-83
2021/12/28 12:46:48;;;;;;;35.67;4.55;;;19.40;42.50;;;;;;4926365;29;20396;-84
2021/12/28 12:49:28;;;;;;;23.13;3.65;;;19.40;42.30;;;;;;4951241;29;20196;-84
2021/12/28 12:52:04;;;;;;;34.33;3.75;;;19.50;42.50;;;;;;4992752;28;20216;-84
2021/12/28 12:54:49;;;;;;;17.05;2.88;;;19.50;42.50;;;;;;4977136;28;20199;-84
2021/12/28 12:57:20;;;;;;;23.45;3.20;;;19.50;42.30;;;;;;5010090;28;20186;-83
2021/12/28 12:59:49;;;;;;;18.67;3.55;;;19.50;42.20;;;;;;4985311;28;20241;-84
2021/12/28 13:02:23;;;;;;;25.52;3.35;;;19.50;42.50;;;;;;5000660;28;20189;-84
2021/12/28 13:04:52;;;;;;;25.98;4.18;;;19.50;42.50;;;;;;4985108;28;20665;-84
2021/12/28 13:07:26;;;;;;;29.48;3.80;;;19.50;42.50;;;;;;4985154;28;20210;-83
2021/12/28 13:10:04;;;;;;;23.45;3.65;;;19.40;42.60;;;;;;4988177;28;20209;-83
2021/12/28 13:12:35;;;;;;;28.58;4.25;;;19.40;42.60;;;;;;5012474;28;20198;-83
2021/12/28 13:15:08;;;;;;;28.73;3.95;;;19.40;42.90;;;;;;5012546;28;20163;-83
2021/12/28 13:17:41;;;;;;;27.25;4.00;;;19.40;43.20;;;;;;4997106;28;20175;-83
2021/12/28 13:20:15;;;;;;;20.33;3.92;;;19.40;43.00;;;;;;4960520;28;20185;-82